createdAt,value
2023-02-04T00:00:31.018Z,0.00
2023-02-04T00:03:05.843Z,0.10
2023-02-04T00:05:38.715Z,0.10
2023-02-04T00:08:11.670Z,0.28
2023-02-04T00:10:44.530Z,0.00
2023-02-04T00:13:17.949Z,0.15
2023-02-04T00:15:51.011Z,0.60
2023-02-04T00:18:25.445Z,0.10
2023-02-04T00:20:58.189Z,0.10
2023-02-04T00:23:30.906Z,0.10
2023-02-04T00:26:03.867Z,0.10
2023-02-04T00:28:36.610Z,0.25
2023-02-04T00:31:09.427Z,0.10
2023-02-04T00:33:43.917Z,0.90
2023-02-04T00:36:16.683Z,0.10
2023-02-04T00:38:50.466Z,0.65
2023-02-04T00:41:23.227Z,0.10
2023-02-04T00:43:56.020Z,0.10
2023-02-04T00:46:30.358Z,0.10
2023-02-04T00:49:06.605Z,0.68
2023-02-04T00:51:41.124Z,0.30
2023-02-04T00:54:15.780Z,0.10
2023-02-04T00:56:48.528Z,0.10
2023-02-04T00:59:21.550Z,0.10
2023-02-04T01:01:54.367Z,0.10
2023-02-04T01:04:29.986Z,0.10
2023-02-04T01:07:02.992Z,0.10
2023-02-04T01:09:39.030Z,0.10
2023-02-04T01:12:11.848Z,0.10
2023-02-04T01:14:44.807Z,0.13
2023-02-04T01:17:18.408Z,0.10
2023-02-04T01:19:55.267Z,0.10
2023-02-04T01:22:28.175Z,0.10
2023-02-04T01:25:01.756Z,0.10
2023-02-04T01:27:47.405Z,0.10
2023-02-04T01:30:20.272Z,0.10
2023-02-04T01:32:53.133Z,0.10
2023-02-04T01:35:27.343Z,0.10
2023-02-04T01:38:00.112Z,0.10
2023-02-04T01:40:33.287Z,0.10
2023-02-04T01:43:07.010Z,0.45
2023-02-04T01:45:39.908Z,0.10
2023-02-04T01:48:20.064Z,0.93
2023-02-04T01:50:58.070Z,0.10
2023-02-04T01:53:32.699Z,0.10
2023-02-04T01:56:16.481Z,0.10
2023-02-04T01:58:50.164Z,0.10
2023-02-04T02:01:38.198Z,0.10
2023-02-04T02:04:13.212Z,0.10
2023-02-04T02:06:51.890Z,0.08
2023-02-04T02:09:25.099Z,0.10
2023-02-04T02:11:58.369Z,0.10
2023-02-04T02:14:32.252Z,0.40
2023-02-04T02:17:05.106Z,0.10
2023-02-04T02:19:40.988Z,0.10
2023-02-04T02:22:25.290Z,0.10
2023-02-04T02:24:59.405Z,0.10
2023-02-04T02:27:32.334Z,0.10
2023-02-04T02:30:06.236Z,0.10
2023-02-04T02:32:39.922Z,0.10
2023-02-04T02:35:13.063Z,0.10
2023-02-04T02:37:45.891Z,0.10
2023-02-04T02:40:21.026Z,0.10
2023-02-04T02:42:55.055Z,0.10
2023-02-04T02:45:31.510Z,0.10
2023-02-04T02:48:04.503Z,0.10
2023-02-04T02:50:37.896Z,0.63
2023-02-04T02:53:12.910Z,0.00
2023-02-04T02:55:48.532Z,0.10
2023-02-04T02:58:29.040Z,0.10
2023-02-04T03:01:05.599Z,0.10
2023-02-04T03:03:44.235Z,0.10
2023-02-04T03:06:20.420Z,0.22
2023-02-04T03:08:56.833Z,0.10
2023-02-04T03:11:32.653Z,0.32
2023-02-04T03:14:06.112Z,0.10
2023-02-04T03:16:40.483Z,0.10
2023-02-04T03:19:14.098Z,0.10
2023-02-04T03:21:47.183Z,0.10
2023-02-04T03:24:20.103Z,0.10
2023-02-04T03:26:54.367Z,0.10
2023-02-04T03:29:28.444Z,0.10
2023-02-04T03:32:03.170Z,0.10
2023-02-04T03:34:36.088Z,0.10
2023-02-04T03:37:10.413Z,0.20
2023-02-04T03:39:43.460Z,0.10
2023-02-04T03:42:17.774Z,0.10
2023-02-04T03:44:50.847Z,0.10
2023-02-04T03:47:23.677Z,0.10
2023-02-04T03:49:56.460Z,0.10
2023-02-04T03:52:29.250Z,0.10
2023-02-04T03:55:02.042Z,0.10
2023-02-04T03:57:36.151Z,0.10
2023-02-04T04:00:10.564Z,0.10
2023-02-04T04:02:46.456Z,0.10
2023-02-04T04:05:19.389Z,0.10
2023-02-04T04:07:52.685Z,0.10
2023-02-04T04:10:25.688Z,0.10
2023-02-04T04:12:59.860Z,0.10
2023-02-04T04:15:34.123Z,0.10
2023-02-04T04:18:07.092Z,0.10
2023-02-04T04:20:39.892Z,0.10
2023-02-04T04:23:12.669Z,0.10
2023-02-04T04:25:45.652Z,0.10
2023-02-04T04:28:19.896Z,0.10
2023-02-04T04:30:52.756Z,0.10
2023-02-04T04:33:25.562Z,0.47
2023-02-04T04:35:58.541Z,0.10
2023-02-04T04:38:31.309Z,0.10
2023-02-04T04:41:04.187Z,0.10
2023-02-04T04:43:38.407Z,0.10
2023-02-04T04:46:11.185Z,0.10
2023-02-04T04:48:43.970Z,0.00
2023-02-04T04:51:16.855Z,0.10
2023-02-04T04:53:49.629Z,0.10
2023-02-04T04:56:22.422Z,0.10
2023-02-04T04:58:56.587Z,0.10
2023-02-04T05:01:29.320Z,0.10
2023-02-04T05:04:03.886Z,0.10
2023-02-04T05:06:36.669Z,1.23
2023-02-04T05:09:09.703Z,0.17
2023-02-04T05:11:42.443Z,0.10
2023-02-04T05:14:16.585Z,0.10
2023-02-04T05:16:49.424Z,0.10
2023-02-04T05:19:22.226Z,0.10
2023-02-04T05:21:55.120Z,0.50
2023-02-04T05:24:27.951Z,0.10
2023-02-04T05:27:00.723Z,0.10
2023-02-04T05:29:34.883Z,0.00
2023-02-04T05:32:07.652Z,0.10
2023-02-04T05:34:40.589Z,0.10
2023-02-04T05:37:15.360Z,0.10
2023-02-04T05:39:48.566Z,0.10
2023-02-04T05:42:21.346Z,0.10
2023-02-04T05:44:55.580Z,0.10
2023-02-04T05:47:28.450Z,0.10
2023-02-04T05:50:01.359Z,0.10
2023-02-04T05:52:34.205Z,0.00
2023-02-04T05:55:08.120Z,0.10
2023-02-04T05:57:41.153Z,0.10
2023-02-04T06:00:16.035Z,0.10
2023-02-04T06:02:48.775Z,0.10
2023-02-04T06:05:22.997Z,0.10
2023-02-04T06:07:55.834Z,0.10
2023-02-04T06:10:28.645Z,4.18
2023-02-04T06:13:01.479Z,0.10
2023-02-04T06:15:35.644Z,0.10
2023-02-04T06:18:08.695Z,0.10
2023-02-04T06:20:41.691Z,0.10
2023-02-04T06:23:14.585Z,1.27
2023-02-04T06:25:48.844Z,0.10
2023-02-04T06:28:21.694Z,0.10
2023-02-04T06:30:55.986Z,0.10
2023-02-04T06:33:28.930Z,0.10
2023-02-04T06:36:01.870Z,0.17
2023-02-04T06:38:34.778Z,0.10
2023-02-04T06:41:07.786Z,0.10
2023-02-04T06:43:40.658Z,0.10
2023-02-04T06:46:15.561Z,0.10
2023-02-04T06:48:48.496Z,0.10
2023-02-04T06:51:21.398Z,0.00
2023-02-04T06:53:54.237Z,0.10
2023-02-04T06:56:29.395Z,0.10
2023-02-04T06:59:03.460Z,0.10
2023-02-04T07:01:39.803Z,0.10
2023-02-04T07:04:12.576Z,0.10
2023-02-04T07:06:45.303Z,0.10
2023-02-04T07:09:18.101Z,0.10
2023-02-04T07:11:50.916Z,0.10
2023-02-04T07:14:23.714Z,0.10
2023-02-04T07:16:58.725Z,0.10
2023-02-04T07:19:31.537Z,0.10
2023-02-04T07:22:04.834Z,0.05
2023-02-04T07:24:37.840Z,0.10
2023-02-04T07:27:10.662Z,0.10
2023-02-04T07:29:43.550Z,0.10
2023-02-04T07:32:17.684Z,0.10
2023-02-04T07:34:50.479Z,0.10
2023-02-04T07:37:23.700Z,0.10
2023-02-04T07:39:56.552Z,0.10
2023-02-04T07:42:29.408Z,0.10
2023-02-04T07:45:11.416Z,0.20
2023-02-04T07:47:45.766Z,0.10
2023-02-04T07:50:18.764Z,0.10
2023-02-04T07:52:51.512Z,0.10
2023-02-04T07:55:24.348Z,0.10
2023-02-04T07:57:57.272Z,0.10
2023-02-04T08:00:30.384Z,0.10
2023-02-04T08:03:05.108Z,0.10
2023-02-04T08:05:40.734Z,0.10
2023-02-04T08:08:13.494Z,0.10
2023-02-04T08:10:46.304Z,0.15
2023-02-04T08:13:19.058Z,0.10
2023-02-04T08:15:51.867Z,0.10
2023-02-04T08:18:26.109Z,0.10
2023-02-04T08:20:59.474Z,0.10
2023-02-04T08:23:33.044Z,0.10
2023-02-04T08:26:06.143Z,0.10
2023-02-04T08:28:39.386Z,0.10
2023-02-04T08:31:12.710Z,0.10
2023-02-04T08:33:47.102Z,0.10
2023-02-04T08:36:19.877Z,0.10
2023-02-04T08:38:52.675Z,3.45
2023-02-04T08:41:25.557Z,8.13
2023-02-04T08:43:58.577Z,2.90
2023-02-04T08:46:31.516Z,3.50
2023-02-04T08:49:05.816Z,3.15
2023-02-04T08:51:38.603Z,5.95
2023-02-04T08:54:11.345Z,5.07
2023-02-04T08:56:45.007Z,4.85
2023-02-04T08:59:17.790Z,4.65
2023-02-04T09:01:52.496Z,3.47
2023-02-04T09:04:28.388Z,6.03
2023-02-04T09:07:01.702Z,3.20
2023-02-04T09:09:34.444Z,2.42
2023-02-04T09:12:07.223Z,2.80
2023-02-04T09:14:39.971Z,1.73
2023-02-04T09:17:12.707Z,2.42
2023-02-04T09:19:46.839Z,3.55
2023-02-04T09:22:19.677Z,1.85
2023-02-04T09:24:52.556Z,1.88
2023-02-04T09:27:25.300Z,1.88
2023-02-04T09:29:58.330Z,1.73
2023-02-04T09:32:31.236Z,3.10
2023-02-04T09:35:06.035Z,1.20
2023-02-04T09:37:39.019Z,2.47
2023-02-04T09:40:17.119Z,1.38
2023-02-04T09:42:51.609Z,2.58
2023-02-04T09:45:28.062Z,2.85
2023-02-04T09:48:04.226Z,3.47
2023-02-04T09:50:38.595Z,3.72
2023-02-04T09:53:15.593Z,2.13
2023-02-04T09:55:49.788Z,1.10
2023-02-04T09:58:26.321Z,0.93
2023-02-04T10:01:02.505Z,2.03
2023-02-04T10:03:35.714Z,1.55
2023-02-04T10:06:10.533Z,1.38
2023-02-04T10:08:45.017Z,3.35
2023-02-04T10:11:20.662Z,3.70
2023-02-04T10:13:56.107Z,2.80
2023-02-04T10:16:32.852Z,1.67
2023-02-04T10:19:08.651Z,1.58
2023-02-04T10:21:44.752Z,2.03
2023-02-04T10:24:19.861Z,2.97
2023-02-04T10:26:52.685Z,1.20
2023-02-04T10:29:25.898Z,3.55
2023-02-04T10:31:58.782Z,2.95
2023-02-04T10:34:37.857Z,0.60
2023-02-04T10:37:21.256Z,2.92
2023-02-04T10:39:54.299Z,2.15
2023-02-04T10:42:28.616Z,1.00
2023-02-04T10:45:01.452Z,2.90
2023-02-04T10:47:35.967Z,1.63
2023-02-04T10:50:18.434Z,2.03
2023-02-04T10:52:55.323Z,1.20
2023-02-04T10:55:28.087Z,3.35
2023-02-04T10:58:03.479Z,1.40
2023-02-04T11:00:36.245Z,1.95
2023-02-04T11:03:12.986Z,1.45
2023-02-04T11:05:45.738Z,1.40
2023-02-04T11:08:24.100Z,2.72
2023-02-04T11:11:00.118Z,1.13
2023-02-04T11:13:42.025Z,1.63
2023-02-04T11:16:26.388Z,1.73
2023-02-04T11:19:00.904Z,1.00
2023-02-04T11:21:44.613Z,1.67
2023-02-04T11:24:34.556Z,1.02
2023-02-04T11:27:19.149Z,2.58
2023-02-04T11:29:52.718Z,0.95
2023-02-04T11:32:32.202Z,2.53
2023-02-04T11:35:22.173Z,2.08
2023-02-04T11:37:56.029Z,1.25
2023-02-04T11:40:32.639Z,0.98
2023-02-04T11:43:12.450Z,1.52
2023-02-04T11:45:45.636Z,0.77
2023-02-04T11:48:20.893Z,1.45
2023-02-04T11:50:57.907Z,2.75
2023-02-04T11:53:32.703Z,1.17
2023-02-04T11:56:06.974Z,0.98
2023-02-04T11:58:41.983Z,1.63
2023-02-04T12:01:18.660Z,2.13
2023-02-04T12:03:57.550Z,1.85
2023-02-04T12:06:32.987Z,1.35
2023-02-04T12:09:07.152Z,1.13
2023-02-04T12:11:41.270Z,0.70
2023-02-04T12:14:18.805Z,0.80
2023-02-04T12:16:52.682Z,1.67
2023-02-04T12:19:27.577Z,1.52
2023-02-04T12:22:00.842Z,2.35
2023-02-04T12:24:33.542Z,1.95
2023-02-04T12:27:07.631Z,1.58
2023-02-04T12:29:40.372Z,1.40
2023-02-04T12:32:13.155Z,2.08
2023-02-04T12:34:45.922Z,1.77
2023-02-04T12:37:18.664Z,1.27
2023-02-04T12:39:51.763Z,6.13
2023-02-04T12:42:25.852Z,1.48
2023-02-04T12:44:58.619Z,0.80
2023-02-04T12:47:31.348Z,0.80
2023-02-04T12:50:04.269Z,0.77
2023-02-04T12:52:39.064Z,1.67
2023-02-04T12:55:11.903Z,1.15
2023-02-04T12:57:46.459Z,1.35
2023-02-04T13:00:21.380Z,2.13
2023-02-04T13:02:55.895Z,1.83
2023-02-04T13:05:29.088Z,1.15
2023-02-04T13:08:02.036Z,0.88
2023-02-04T13:10:34.957Z,2.83
2023-02-04T13:13:09.284Z,2.03
2023-02-04T13:15:42.195Z,2.10
2023-02-04T13:18:17.383Z,1.35
2023-02-04T13:20:50.737Z,0.98
2023-02-04T13:23:23.586Z,0.60
2023-02-04T13:25:56.383Z,0.93
2023-02-04T13:28:30.484Z,1.40
2023-02-04T13:31:04.530Z,0.88
2023-02-04T13:33:37.370Z,1.95
2023-02-04T13:36:10.210Z,1.25
2023-02-04T13:38:42.958Z,1.15
2023-02-04T13:41:15.692Z,0.98
2023-02-04T13:43:49.879Z,0.63
2023-02-04T13:46:22.928Z,4.07
2023-02-04T13:48:56.155Z,3.42
2023-02-04T13:51:29.842Z,0.80
2023-02-04T13:54:02.709Z,1.33
2023-02-04T13:56:36.565Z,1.73
2023-02-04T13:59:10.667Z,2.42
2023-02-04T14:01:43.554Z,1.70
2023-02-04T14:04:16.380Z,2.22
2023-02-04T14:06:49.172Z,1.67
2023-02-04T14:09:22.614Z,1.98
2023-02-04T14:11:55.404Z,1.77
2023-02-04T14:14:29.666Z,1.02
2023-02-04T14:17:02.403Z,1.15
2023-02-04T14:19:35.330Z,2.38
2023-02-04T14:22:12.929Z,2.78
2023-02-04T14:24:47.745Z,1.73
2023-02-04T14:27:22.258Z,1.17
2023-02-04T14:29:56.399Z,1.60
2023-02-04T14:32:29.186Z,1.67
2023-02-04T14:35:02.119Z,1.08
2023-02-04T14:37:34.870Z,1.92
2023-02-04T14:40:08.936Z,1.58
2023-02-04T14:42:42.061Z,1.13
2023-02-04T14:45:16.228Z,1.58
2023-02-04T14:47:48.950Z,1.52
2023-02-04T14:53:16.447Z,1.52
2023-02-04T14:55:49.299Z,1.50
2023-02-04T14:58:22.273Z,1.15
2023-02-04T15:00:56.673Z,1.15
2023-02-04T15:03:29.622Z,1.48
2023-02-04T15:06:02.902Z,2.72
2023-02-04T15:08:35.910Z,2.22
2023-02-04T15:11:08.646Z,2.83
2023-02-04T15:13:41.461Z,0.98
2023-02-04T15:16:15.747Z,2.65
2023-02-04T15:18:48.752Z,1.88
2023-02-04T15:21:21.518Z,2.35
2023-02-04T15:23:54.274Z,4.60
2023-02-04T15:26:27.037Z,6.20
2023-02-04T15:28:59.794Z,2.72
2023-02-04T15:31:34.050Z,2.85
2023-02-04T15:34:06.877Z,1.25
2023-02-04T15:36:39.560Z,3.25
2023-02-04T15:39:12.491Z,2.50
2023-02-04T15:41:45.318Z,0.88
2023-02-04T15:44:18.109Z,2.17
2023-02-04T15:46:52.452Z,1.30
2023-02-04T15:49:25.214Z,3.47
2023-02-04T15:51:58.604Z,1.50
2023-02-04T15:54:31.660Z,1.52
2023-02-04T15:57:04.727Z,2.00
2023-02-04T15:59:37.585Z,3.28
2023-02-04T16:02:12.594Z,1.90
2023-02-04T16:04:47.881Z,1.77
2023-02-04T16:07:20.672Z,2.58
2023-02-04T16:09:53.422Z,2.00
2023-02-04T16:12:26.191Z,1.65
2023-02-04T16:14:59.333Z,2.17
2023-02-04T16:17:34.720Z,2.60
2023-02-04T16:20:08.885Z,2.83
2023-02-04T16:22:41.652Z,3.60
2023-02-04T16:25:14.422Z,2.22
2023-02-04T16:27:47.177Z,2.55
2023-02-04T16:30:19.901Z,3.17
2023-02-04T16:32:54.134Z,1.92
2023-02-04T16:35:27.104Z,2.53
2023-02-04T16:38:00.023Z,1.88
2023-02-04T16:40:33.176Z,1.88
2023-02-04T16:43:06.124Z,1.45
2023-02-04T16:45:38.878Z,2.80
2023-02-04T16:48:13.292Z,3.97
2023-02-04T16:50:46.044Z,3.72
2023-02-04T16:53:18.785Z,2.17
2023-02-04T16:55:51.534Z,2.85
2023-02-04T16:58:24.354Z,2.50
2023-02-04T17:00:58.523Z,1.92
2023-02-04T17:03:32.852Z,1.52
2023-02-04T17:06:05.914Z,1.77
2023-02-04T17:08:38.698Z,2.03
2023-02-04T17:11:29.809Z,2.15
2023-02-04T17:14:04.480Z,1.45
2023-02-04T17:16:37.702Z,1.08
2023-02-04T17:19:12.613Z,2.08
2023-02-04T17:21:45.751Z,1.63
2023-02-04T17:24:18.639Z,3.05
2023-02-04T17:26:51.418Z,5.28
2023-02-04T17:29:24.920Z,1.42
2023-02-04T17:31:57.758Z,1.38
2023-02-04T17:34:31.875Z,3.83
2023-02-04T17:37:04.719Z,2.38
2023-02-04T17:39:37.496Z,1.58
2023-02-04T17:42:10.393Z,2.53
2023-02-04T17:44:43.660Z,3.05
2023-02-04T17:47:16.627Z,3.20
2023-02-04T17:49:50.973Z,3.20
2023-02-04T17:52:23.804Z,3.95
2023-02-04T17:54:56.559Z,4.82
2023-02-04T17:57:29.519Z,3.55
2023-02-04T18:00:03.024Z,3.47
2023-02-04T18:02:45.344Z,2.78
2023-02-04T18:05:22.578Z,2.55
2023-02-04T18:08:00.984Z,3.63
2023-02-04T18:10:36.388Z,4.38
2023-02-04T18:13:14.837Z,6.00
2023-02-04T18:15:50.429Z,6.68
2023-02-04T18:18:25.393Z,6.45
2023-02-04T18:21:02.120Z,4.40
2023-02-04T18:23:35.138Z,4.72
2023-02-04T18:26:13.209Z,4.07
2023-02-04T18:28:48.407Z,3.75
2023-02-04T18:31:35.328Z,3.40
2023-02-04T18:34:20.680Z,3.10
2023-02-04T18:36:55.199Z,4.35
2023-02-04T18:39:29.727Z,3.25
2023-02-04T18:42:02.497Z,3.67
2023-02-04T18:44:38.043Z,2.25
2023-02-04T18:47:29.544Z,2.40
2023-02-04T18:50:16.591Z,6.03
2023-02-04T18:52:50.883Z,3.88
2023-02-04T18:55:30.618Z,5.97
2023-02-04T18:58:26.211Z,3.40
2023-02-04T19:01:01.867Z,3.25
2023-02-04T19:03:42.140Z,3.55
2023-02-04T19:09:09.293Z,3.72
2023-02-04T19:11:43.704Z,6.72
2023-02-04T19:14:22.244Z,3.45
2023-02-04T19:17:03.227Z,3.35
2023-02-04T19:19:38.676Z,8.25
2023-02-04T19:22:19.747Z,7.47
2023-02-04T19:24:58.536Z,15.93
2023-02-04T19:27:34.289Z,15.23
2023-02-04T19:30:41.684Z,16.25
2023-02-04T19:33:17.925Z,20.75
2023-02-04T19:35:50.714Z,16.08
2023-02-04T19:38:40.405Z,11.98
2023-02-04T19:41:28.000Z,8.07
2023-02-04T19:44:34.654Z,7.82
2023-02-04T19:47:30.563Z,8.75
2023-02-04T19:50:21.605Z,14.52
2023-02-04T19:52:58.046Z,11.70
2023-02-04T19:55:34.429Z,12.05
2023-02-04T19:58:20.682Z,11.52
2023-02-04T20:00:57.838Z,11.00
2023-02-04T20:03:40.946Z,13.35
2023-02-04T20:06:32.700Z,40.75
2023-02-04T20:09:11.828Z,44.95
2023-02-04T20:11:59.662Z,39.95
2023-02-04T20:14:47.451Z,24.33
2023-02-04T20:17:37.301Z,15.90
2023-02-04T20:20:27.691Z,11.10
2023-02-04T20:25:54.642Z,7.95
2023-02-04T20:28:40.163Z,7.38
2023-02-04T20:31:29.573Z,8.00
2023-02-04T20:34:02.437Z,5.33
2023-02-04T20:36:38.479Z,8.02
2023-02-04T20:39:25.125Z,5.15
2023-02-04T20:42:21.851Z,6.05
2023-02-04T20:44:55.584Z,7.63
2023-02-04T20:47:35.930Z,5.35
2023-02-04T20:50:41.207Z,7.85
2023-02-04T20:53:25.510Z,6.40
2023-02-04T20:56:03.834Z,7.43
2023-02-04T20:58:38.894Z,8.48
2023-02-04T21:01:23.136Z,10.88
2023-02-04T21:03:57.928Z,17.13
2023-02-04T21:06:36.279Z,21.23
2023-02-04T21:09:21.978Z,13.75
2023-02-04T21:11:56.152Z,11.73
2023-02-04T21:14:30.192Z,10.35
2023-02-04T21:17:03.398Z,16.63
2023-02-04T21:19:37.607Z,13.45
2023-02-04T21:22:10.314Z,12.60
2023-02-04T21:24:44.648Z,14.00
2023-02-04T21:27:21.954Z,14.15
2023-02-04T21:29:54.730Z,14.52
2023-02-04T21:32:27.476Z,20.42
2023-02-04T21:35:01.598Z,16.83
2023-02-04T21:37:34.402Z,21.33
2023-02-04T21:40:08.259Z,22.13
2023-02-04T21:42:40.977Z,17.70
2023-02-04T21:45:13.715Z,17.55
2023-02-04T21:47:47.228Z,17.20
2023-02-04T21:50:23.034Z,18.13
2023-02-04T21:52:56.000Z,18.25
2023-02-04T21:55:29.869Z,16.17
2023-02-04T21:58:02.683Z,16.05
2023-02-04T22:00:35.984Z,14.88
2023-02-04T22:03:12.976Z,13.48
2023-02-04T22:05:47.148Z,10.18
2023-02-04T22:08:19.975Z,15.55
2023-02-04T22:10:52.784Z,10.43
2023-02-04T22:13:25.543Z,14.55
2023-02-04T22:15:58.341Z,11.60
2023-02-04T22:18:31.282Z,10.88
2023-02-04T22:21:05.619Z,11.23
2023-02-04T22:23:39.659Z,10.73
2023-02-04T22:26:12.571Z,12.23
2023-02-04T22:28:45.432Z,10.32
2023-02-04T22:31:18.301Z,12.32
2023-02-04T22:33:51.135Z,13.50
2023-02-04T22:36:25.301Z,9.80
2023-02-04T22:38:58.076Z,11.73
2023-02-04T22:41:30.862Z,15.95
2023-02-04T22:44:04.232Z,12.95
2023-02-04T22:46:37.019Z,13.63
2023-02-04T22:49:09.932Z,14.50
2023-02-04T22:51:44.172Z,14.43
2023-02-04T22:54:17.054Z,16.08
2023-02-04T22:56:49.820Z,19.30
2023-02-04T22:59:22.622Z,15.20
2023-02-04T23:01:55.733Z,13.48
2023-02-04T23:04:28.615Z,11.05
2023-02-04T23:07:04.729Z,11.70
2023-02-04T23:09:37.678Z,10.32
2023-02-04T23:12:16.369Z,12.73
2023-02-04T23:14:50.027Z,10.80
2023-02-04T23:17:23.571Z,10.68
2023-02-04T23:19:56.543Z,12.73
2023-02-04T23:22:30.748Z,10.68
2023-02-04T23:25:06.196Z,10.68
2023-02-04T23:27:40.124Z,11.68
2023-02-04T23:30:14.568Z,11.80
2023-02-04T23:32:47.581Z,11.63
2023-02-04T23:35:20.908Z,11.40
2023-02-04T23:37:55.059Z,7.15
2023-02-04T23:40:27.825Z,9.93
2023-02-04T23:43:00.584Z,8.50
2023-02-04T23:45:33.663Z,8.25
2023-02-04T23:48:07.328Z,8.18
2023-02-04T23:50:40.065Z,11.85
2023-02-04T23:53:14.332Z,9.38
2023-02-04T23:55:47.406Z,13.63
2023-02-04T23:58:20.231Z,12.30
